DNAA/ABV METAR and TAF weather

Enter ICAO airport designator
Station Type Date Time Source
DNAA METAR 2020/08/11 18:00 UTC NOAA

DNAA 111800Z 25003KT 9999 FEW010 26/21 Q1014 NOSIG


Station Type Date Time Source
DNAA Decoded METAR 2020/08/11 18:00 UTC NOAA

Station name not available
Aug 11, 2020 - 02:00 PM EDT / 2020.08.11 1800 UTC
Wind: from the WSW (250 degrees) at 3 MPH (3 KT):0
Visibility: greater than 7 mile(s):0
Sky conditions: mostly clear
Temperature: 78 F (26 C)
Dew Point: 69 F (21 C)
Relative Humidity: 73%
Pressure (altimeter): 29.94 in. Hg (1014 hPa)
ob: DNAA 111800Z 25003KT 9999 FEW010 26/21 Q1014 NOSIG
cycle: 18

Station Type Date Time Source
DNAA TAF 2020/08/11 12:24 UTC NOAA

TAF TAF DNAA 111100Z 1112/1218 28005KT 9999 BKN012
BECMG 1114/1116 SCT012
TEMPO 1115/1120 FEW019CB PROB30
TEMPO 1117/1121 12010KT -RA SCT009
BECMG 1122/1124 18012KT

Example: see airport list